sensor_id;sensor_type;location;lat;lon;timestamp;P1;durP1;ratioP1;P2;durP2;ratioP2
13185;SDS011;6658;53.080;7.428;2022-09-09T00:01:08;16.07;;;11.70;;
13185;SDS011;6658;53.080;7.428;2022-09-09T00:07:05;13.03;;;11.23;;
13185;SDS011;6658;53.080;7.428;2022-09-09T00:15:19;18.07;;;11.93;;
13185;SDS011;6658;53.080;7.428;2022-09-09T00:21:13;12.97;;;11.60;;
13185;SDS011;6658;53.080;7.428;2022-09-09T00:23:39;12.73;;;11.13;;
13185;SDS011;6658;53.080;7.428;2022-09-09T00:26:12;15.83;;;12.23;;
13185;SDS011;6658;53.080;7.428;2022-09-09T00:31:45;13.57;;;11.70;;
13185;SDS011;6658;53.080;7.428;2022-09-09T00:36:39;17.07;;;12.97;;
13185;SDS011;6658;53.080;7.428;2022-09-09T00:39:10;17.87;;;13.37;;
13185;SDS011;6658;53.080;7.428;2022-09-09T00:42:03;13.80;;;11.87;;
13185;SDS011;6658;53.080;7.428;2022-09-09T00:44:41;14.33;;;11.77;;
13185;SDS011;6658;53.080;7.428;2022-09-09T00:55:33;14.17;;;12.13;;
13185;SDS011;6658;53.080;7.428;2022-09-09T00:58:19;15.20;;;12.70;;
13185;SDS011;6658;53.080;7.428;2022-09-09T01:00:46;15.23;;;11.70;;
13185;SDS011;6658;53.080;7.428;2022-09-09T01:11:00;17.00;;;12.30;;
13185;SDS011;6658;53.080;7.428;2022-09-09T01:13:33;15.77;;;12.60;;
13185;SDS011;6658;53.080;7.428;2022-09-09T01:16:01;16.23;;;12.00;;
13185;SDS011;6658;53.080;7.428;2022-09-09T01:18:31;17.53;;;11.73;;
13185;SDS011;6658;53.080;7.428;2022-09-09T01:21:04;13.83;;;10.90;;
13185;SDS011;6658;53.080;7.428;2022-09-09T01:26:28;15.70;;;11.93;;
13185;SDS011;6658;53.080;7.428;2022-09-09T01:28:58;17.30;;;12.50;;
13185;SDS011;6658;53.080;7.428;2022-09-09T01:31:28;14.63;;;11.47;;
13185;SDS011;6658;53.080;7.428;2022-09-09T01:33:58;15.70;;;12.50;;
13185;SDS011;6658;53.080;7.428;2022-09-09T01:38:52;16.57;;;11.93;;
13185;SDS011;6658;53.080;7.428;2022-09-09T01:41:18;17.87;;;12.53;;
13185;SDS011;6658;53.080;7.428;2022-09-09T01:43:44;15.20;;;11.90;;
13185;SDS011;6658;53.080;7.428;2022-09-09T01:46:09;15.20;;;11.93;;
13185;SDS011;6658;53.080;7.428;2022-09-09T01:48:37;16.10;;;12.13;;
13185;SDS011;6658;53.080;7.428;2022-09-09T01:51:03;14.10;;;10.83;;
13185;SDS011;6658;53.080;7.428;2022-09-09T01:53:29;14.90;;;11.77;;
13185;SDS011;6658;53.080;7.428;2022-09-09T01:55:57;13.47;;;11.13;;
13185;SDS011;6658;53.080;7.428;2022-09-09T02:01:39;13.10;;;10.77;;
13185;SDS011;6658;53.080;7.428;2022-09-09T02:07:02;14.60;;;10.10;;
13185;SDS011;6658;53.080;7.428;2022-09-09T02:09:47;12.93;;;10.40;;
13185;SDS011;6658;53.080;7.428;2022-09-09T02:12:17;14.93;;;10.17;;
13185;SDS011;6658;53.080;7.428;2022-09-09T02:14:48;12.80;;;9.70;;
13185;SDS011;6658;53.080;7.428;2022-09-09T02:17:26;10.00;;;9.00;;
13185;SDS011;6658;53.080;7.428;2022-09-09T02:19:58;13.20;;;9.73;;
13185;SDS011;6658;53.080;7.428;2022-09-09T02:22:29;15.27;;;10.27;;
13185;SDS011;6658;53.080;7.428;2022-09-09T02:24:59;14.67;;;11.20;;
13185;SDS011;6658;53.080;7.428;2022-09-09T02:27:26;14.57;;;11.00;;
13185;SDS011;6658;53.080;7.428;2022-09-09T02:29:53;12.93;;;10.33;;
13185;SDS011;6658;53.080;7.428;2022-09-09T02:32:22;12.53;;;9.90;;
13185;SDS011;6658;53.080;7.428;2022-09-09T02:35:00;11.77;;;9.17;;
13185;SDS011;6658;53.080;7.428;2022-09-09T02:37:32;10.40;;;8.40;;
13185;SDS011;6658;53.080;7.428;2022-09-09T02:40:11;11.07;;;8.00;;
13185;SDS011;6658;53.080;7.428;2022-09-09T02:42:41;11.70;;;8.20;;
13185;SDS011;6658;53.080;7.428;2022-09-09T02:45:09;9.27;;;7.17;;
13185;SDS011;6658;53.080;7.428;2022-09-09T02:58:14;8.33;;;7.53;;
13185;SDS011;6658;53.080;7.428;2022-09-09T03:00:43;10.97;;;7.53;;
13185;SDS011;6658;53.080;7.428;2022-09-09T03:03:11;9.67;;;6.77;;
13185;SDS011;6658;53.080;7.428;2022-09-09T03:05:37;7.50;;;6.70;;
13185;SDS011;6658;53.080;7.428;2022-09-09T03:08:03;9.87;;;6.70;;
13185;SDS011;6658;53.080;7.428;2022-09-09T03:10:30;7.07;;;6.30;;
13185;SDS011;6658;53.080;7.428;2022-09-09T03:12:57;9.17;;;6.77;;
13185;SDS011;6658;53.080;7.428;2022-09-09T03:15:22;8.03;;;6.40;;
13185;SDS011;6658;53.080;7.428;2022-09-09T03:17:48;8.90;;;5.80;;
13185;SDS011;6658;53.080;7.428;2022-09-09T03:20:14;8.80;;;6.97;;
13185;SDS011;6658;53.080;7.428;2022-09-09T03:22:39;9.07;;;7.00;;
13185;SDS011;6658;53.080;7.428;2022-09-09T03:25:05;8.30;;;6.33;;
13185;SDS011;6658;53.080;7.428;2022-09-09T03:27:31;8.40;;;6.80;;
13185;SDS011;6658;53.080;7.428;2022-09-09T03:29:58;8.00;;;6.87;;
13185;SDS011;6658;53.080;7.428;2022-09-09T03:32:23;9.57;;;8.57;;
13185;SDS011;6658;53.080;7.428;2022-09-09T03:34:51;10.13;;;8.87;;
13185;SDS011;6658;53.080;7.428;2022-09-09T03:37:17;11.13;;;8.37;;
13185;SDS011;6658;53.080;7.428;2022-09-09T03:39:44;12.47;;;8.87;;
13185;SDS011;6658;53.080;7.428;2022-09-09T03:42:14;8.33;;;7.40;;
13185;SDS011;6658;53.080;7.428;2022-09-09T03:44:43;9.70;;;7.20;;
13185;SDS011;6658;53.080;7.428;2022-09-09T03:47:12;7.97;;;7.17;;
13185;SDS011;6658;53.080;7.428;2022-09-09T03:49:38;9.97;;;7.93;;
13185;SDS011;6658;53.080;7.428;2022-09-09T03:52:03;8.53;;;7.30;;
13185;SDS011;6658;53.080;7.428;2022-09-09T03:54:29;9.33;;;7.97;;
13185;SDS011;6658;53.080;7.428;2022-09-09T03:56:55;10.70;;;7.20;;
13185;SDS011;6658;53.080;7.428;2022-09-09T03:59:20;9.07;;;7.43;;
13185;SDS011;6658;53.080;7.428;2022-09-09T04:01:46;9.33;;;7.00;;
13185;SDS011;6658;53.080;7.428;2022-09-09T04:04:12;8.43;;;7.33;;
13185;SDS011;6658;53.080;7.428;2022-09-09T04:06:38;11.90;;;7.30;;
13185;SDS011;6658;53.080;7.428;2022-09-09T04:09:03;8.37;;;7.47;;
13185;SDS011;6658;53.080;7.428;2022-09-09T04:11:29;8.67;;;7.13;;
13185;SDS011;6658;53.080;7.428;2022-09-09T04:13:55;8.67;;;7.30;;
13185;SDS011;6658;53.080;7.428;2022-09-09T04:16:20;11.33;;;7.57;;
13185;SDS011;6658;53.080;7.428;2022-09-09T04:18:46;8.03;;;7.33;;
13185;SDS011;6658;53.080;7.428;2022-09-09T04:21:12;10.80;;;7.37;;
13185;SDS011;6658;53.080;7.428;2022-09-09T04:23:38;11.53;;;7.27;;
13185;SDS011;6658;53.080;7.428;2022-09-09T04:26:04;9.70;;;7.00;;
13185;SDS011;6658;53.080;7.428;2022-09-09T04:28:31;9.67;;;6.57;;
13185;SDS011;6658;53.080;7.428;2022-09-09T04:31:09;7.20;;;6.17;;
13185;SDS011;6658;53.080;7.428;2022-09-09T04:33:39;8.33;;;6.30;;
13185;SDS011;6658;53.080;7.428;2022-09-09T04:36:05;8.77;;;6.73;;
13185;SDS011;6658;53.080;7.428;2022-09-09T04:38:31;7.00;;;6.30;;
13185;SDS011;6658;53.080;7.428;2022-09-09T04:40:57;8.70;;;6.67;;
13185;SDS011;6658;53.080;7.428;2022-09-09T04:43:23;7.10;;;6.40;;
13185;SDS011;6658;53.080;7.428;2022-09-09T04:45:51;8.90;;;5.80;;
13185;SDS011;6658;53.080;7.428;2022-09-09T04:48:17;6.10;;;5.50;;
13185;SDS011;6658;53.080;7.428;2022-09-09T04:50:43;6.30;;;5.30;;
13185;SDS011;6658;53.080;7.428;2022-09-09T04:53:18;5.93;;;5.20;;
13185;SDS011;6658;53.080;7.428;2022-09-09T04:55:43;7.53;;;4.97;;
13185;SDS011;6658;53.080;7.428;2022-09-09T04:58:09;5.83;;;4.27;;
13185;SDS011;6658;53.080;7.428;2022-09-09T05:00:35;6.20;;;4.70;;
13185;SDS011;6658;53.080;7.428;2022-09-09T05:03:04;7.03;;;4.03;;
13185;SDS011;6658;53.080;7.428;2022-09-09T05:05:31;4.80;;;4.23;;
13185;SDS011;6658;53.080;7.428;2022-09-09T05:08:02;4.60;;;4.20;;
13185;SDS011;6658;53.080;7.428;2022-09-09T05:10:33;5.67;;;4.90;;
13185;SDS011;6658;53.080;7.428;2022-09-09T05:13:01;6.30;;;4.57;;
13185;SDS011;6658;53.080;7.428;2022-09-09T05:15:27;10.40;;;4.67;;
13185;SDS011;6658;53.080;7.428;2022-09-09T05:17:52;6.00;;;4.70;;
13185;SDS011;6658;53.080;7.428;2022-09-09T05:20:23;8.00;;;5.03;;
13185;SDS011;6658;53.080;7.428;2022-09-09T05:22:52;4.87;;;4.37;;
13185;SDS011;6658;53.080;7.428;2022-09-09T05:25:21;6.50;;;4.43;;
13185;SDS011;6658;53.080;7.428;2022-09-09T05:27:49;7.07;;;4.63;;
13185;SDS011;6658;53.080;7.428;2022-09-09T05:30:15;5.53;;;4.27;;
13185;SDS011;6658;53.080;7.428;2022-09-09T05:32:41;5.20;;;4.33;;
13185;SDS011;6658;53.080;7.428;2022-09-09T05:35:08;5.93;;;4.57;;
13185;SDS011;6658;53.080;7.428;2022-09-09T05:37:33;5.23;;;4.40;;
13185;SDS011;6658;53.080;7.428;2022-09-09T05:40:00;5.40;;;4.00;;
13185;SDS011;6658;53.080;7.428;2022-09-09T05:42:29;4.57;;;4.17;;
13185;SDS011;6658;53.080;7.428;2022-09-09T05:44:55;4.30;;;3.90;;
13185;SDS011;6658;53.080;7.428;2022-09-09T05:47:21;5.07;;;3.90;;
13185;SDS011;6658;53.080;7.428;2022-09-09T05:49:47;5.97;;;3.50;;
13185;SDS011;6658;53.080;7.428;2022-09-09T05:52:14;5.80;;;3.77;;
13185;SDS011;6658;53.080;7.428;2022-09-09T05:54:39;5.33;;;3.90;;
13185;SDS011;6658;53.080;7.428;2022-09-09T05:57:06;3.90;;;3.60;;
13185;SDS011;6658;53.080;7.428;2022-09-09T05:59:32;3.77;;;3.43;;
13185;SDS011;6658;53.080;7.428;2022-09-09T06:01:57;5.43;;;3.87;;
13185;SDS011;6658;53.080;7.428;2022-09-09T06:04:24;4.03;;;3.60;;
13185;SDS011;6658;53.080;7.428;2022-09-09T06:06:50;3.93;;;3.20;;
13185;SDS011;6658;53.080;7.428;2022-09-09T06:09:15;4.57;;;3.63;;
13185;SDS011;6658;53.080;7.428;2022-09-09T06:11:41;4.70;;;3.23;;
13185;SDS011;6658;53.080;7.428;2022-09-09T06:14:07;4.90;;;2.93;;
13185;SDS011;6658;53.080;7.428;2022-09-09T06:16:34;4.20;;;3.47;;
13185;SDS011;6658;53.080;7.428;2022-09-09T06:19:02;3.60;;;3.30;;
13185;SDS011;6658;53.080;7.428;2022-09-09T06:21:38;3.70;;;3.40;;
13185;SDS011;6658;53.080;7.428;2022-09-09T06:24:04;9.77;;;6.20;;
13185;SDS011;6658;53.080;7.428;2022-09-09T06:26:34;3.93;;;3.37;;
13185;SDS011;6658;53.080;7.428;2022-09-09T06:29:03;6.43;;;3.33;;
13185;SDS011;6658;53.080;7.428;2022-09-09T06:31:30;6.77;;;3.47;;
13185;SDS011;6658;53.080;7.428;2022-09-09T06:33:59;4.10;;;3.70;;
13185;SDS011;6658;53.080;7.428;2022-09-09T06:38:51;4.23;;;3.50;;
13185;SDS011;6658;53.080;7.428;2022-09-09T06:41:18;3.97;;;3.67;;
13185;SDS011;6658;53.080;7.428;2022-09-09T06:43:48;4.10;;;3.70;;
13185;SDS011;6658;53.080;7.428;2022-09-09T06:46:18;4.40;;;4.00;;
13185;SDS011;6658;53.080;7.428;2022-09-09T06:48:46;4.33;;;3.93;;
13185;SDS011;6658;53.080;7.428;2022-09-09T06:51:22;4.17;;;3.77;;
13185;SDS011;6658;53.080;7.428;2022-09-09T06:53:52;5.53;;;3.47;;
13185;SDS011;6658;53.080;7.428;2022-09-09T06:56:23;3.83;;;3.53;;
13185;SDS011;6658;53.080;7.428;2022-09-09T06:58:53;3.90;;;3.50;;
13185;SDS011;6658;53.080;7.428;2022-09-09T07:01:21;4.53;;;4.07;;
13185;SDS011;6658;53.080;7.428;2022-09-09T07:03:51;4.33;;;4.00;;
13185;SDS011;6658;53.080;7.428;2022-09-09T07:08:55;5.33;;;4.83;;
13185;SDS011;6658;53.080;7.428;2022-09-09T07:11:25;6.07;;;4.50;;
13185;SDS011;6658;53.080;7.428;2022-09-09T07:13:53;4.60;;;3.90;;
13185;SDS011;6658;53.080;7.428;2022-09-09T07:16:20;3.57;;;3.27;;
13185;SDS011;6658;53.080;7.428;2022-09-09T07:18:49;3.67;;;3.30;;
13185;SDS011;6658;53.080;7.428;2022-09-09T07:21:16;3.50;;;2.90;;
13185;SDS011;6658;53.080;7.428;2022-09-09T07:23:42;2.70;;;2.50;;
13185;SDS011;6658;53.080;7.428;2022-09-09T07:26:12;3.77;;;2.60;;
13185;SDS011;6658;53.080;7.428;2022-09-09T07:28:39;2.40;;;2.20;;
13185;SDS011;6658;53.080;7.428;2022-09-09T07:31:06;2.60;;;2.40;;
13185;SDS011;6658;53.080;7.428;2022-09-09T07:33:38;2.10;;;1.90;;
13185;SDS011;6658;53.080;7.428;2022-09-09T07:36:07;3.47;;;2.30;;
13185;SDS011;6658;53.080;7.428;2022-09-09T07:38:47;3.70;;;2.40;;
13185;SDS011;6658;53.080;7.428;2022-09-09T07:41:18;2.87;;;2.60;;
13185;SDS011;6658;53.080;7.428;2022-09-09T07:43:52;2.57;;;2.37;;
13185;SDS011;6658;53.080;7.428;2022-09-09T07:46:22;2.60;;;2.40;;
13185;SDS011;6658;53.080;7.428;2022-09-09T07:48:51;2.73;;;2.40;;
13185;SDS011;6658;53.080;7.428;2022-09-09T07:51:23;2.53;;;2.33;;
13185;SDS011;6658;53.080;7.428;2022-09-09T07:53:55;4.13;;;2.70;;
13185;SDS011;6658;53.080;7.428;2022-09-09T07:56:27;3.90;;;2.60;;
13185;SDS011;6658;53.080;7.428;2022-09-09T07:58:54;3.03;;;2.60;;
13185;SDS011;6658;53.080;7.428;2022-09-09T08:01:26;3.93;;;2.63;;
13185;SDS011;6658;53.080;7.428;2022-09-09T08:03:57;4.50;;;2.83;;
13185;SDS011;6658;53.080;7.428;2022-09-09T08:06:26;4.70;;;2.40;;
13185;SDS011;6658;53.080;7.428;2022-09-09T08:08:53;3.10;;;2.53;;
13185;SDS011;6658;53.080;7.428;2022-09-09T08:11:20;3.90;;;2.40;;
13185;SDS011;6658;53.080;7.428;2022-09-09T08:13:48;2.77;;;2.50;;
13185;SDS011;6658;53.080;7.428;2022-09-09T08:16:16;4.13;;;2.60;;
13185;SDS011;6658;53.080;7.428;2022-09-09T08:18:44;3.20;;;2.90;;
13185;SDS011;6658;53.080;7.428;2022-09-09T08:21:16;2.50;;;2.30;;
13185;SDS011;6658;53.080;7.428;2022-09-09T08:23:46;4.80;;;2.50;;
13185;SDS011;6658;53.080;7.428;2022-09-09T08:26:16;3.03;;;2.73;;
13185;SDS011;6658;53.080;7.428;2022-09-09T08:28:49;4.03;;;2.60;;
13185;SDS011;6658;53.080;7.428;2022-09-09T08:34:00;2.93;;;2.73;;
13185;SDS011;6658;53.080;7.428;2022-09-09T08:36:32;3.03;;;2.73;;
13185;SDS011;6658;53.080;7.428;2022-09-09T08:38:59;3.30;;;2.50;;
13185;SDS011;6658;53.080;7.428;2022-09-09T08:50:16;4.23;;;2.20;;
13185;SDS011;6658;53.080;7.428;2022-09-09T08:52:54;3.50;;;1.80;;
13185;SDS011;6658;53.080;7.428;2022-09-09T09:03:27;4.10;;;2.13;;
13185;SDS011;6658;53.080;7.428;2022-09-09T09:06:06;2.60;;;1.83;;
13185;SDS011;6658;53.080;7.428;2022-09-09T09:09:08;2.70;;;2.10;;
13185;SDS011;6658;53.080;7.428;2022-09-09T09:14:20;2.70;;;1.90;;
13185;SDS011;6658;53.080;7.428;2022-09-09T09:16:54;3.47;;;2.97;;
13185;SDS011;6658;53.080;7.428;2022-09-09T09:19:24;2.40;;;2.00;;
13185;SDS011;6658;53.080;7.428;2022-09-09T09:21:56;3.40;;;2.13;;
13185;SDS011;6658;53.080;7.428;2022-09-09T09:27:36;2.50;;;1.70;;
13185;SDS011;6658;53.080;7.428;2022-09-09T09:32:50;3.23;;;1.80;;
13185;SDS011;6658;53.080;7.428;2022-09-09T09:35:22;3.90;;;2.20;;
13185;SDS011;6658;53.080;7.428;2022-09-09T09:37:48;2.30;;;1.63;;
13185;SDS011;6658;53.080;7.428;2022-09-09T09:40:15;2.33;;;1.50;;
13185;SDS011;6658;53.080;7.428;2022-09-09T09:42:49;3.87;;;2.13;;
13185;SDS011;6658;53.080;7.428;2022-09-09T09:48:08;4.27;;;1.60;;
13185;SDS011;6658;53.080;7.428;2022-09-09T09:50:39;2.13;;;1.50;;
13185;SDS011;6658;53.080;7.428;2022-09-09T09:53:19;2.90;;;1.37;;
13185;SDS011;6658;53.080;7.428;2022-09-09T09:58:20;3.13;;;1.47;;
13185;SDS011;6658;53.080;7.428;2022-09-09T10:00:47;3.00;;;1.20;;
13185;SDS011;6658;53.080;7.428;2022-09-09T10:03:28;2.33;;;1.10;;
13185;SDS011;6658;53.080;7.428;2022-09-09T10:05:55;6.80;;;1.93;;
13185;SDS011;6658;53.080;7.428;2022-09-09T10:08:22;3.80;;;1.30;;
13185;SDS011;6658;53.080;7.428;2022-09-09T10:19:29;2.80;;;1.10;;
13185;SDS011;6658;53.080;7.428;2022-09-09T10:32:46;2.47;;;1.30;;
13185;SDS011;6658;53.080;7.428;2022-09-09T10:35:33;3.43;;;1.20;;
13185;SDS011;6658;53.080;7.428;2022-09-09T10:38:19;4.77;;;1.40;;
13185;SDS011;6658;53.080;7.428;2022-09-09T10:41:13;3.40;;;1.60;;
13185;SDS011;6658;53.080;7.428;2022-09-09T10:48:59;5.13;;;1.20;;
13185;SDS011;6658;53.080;7.428;2022-09-09T11:00:03;3.73;;;1.40;;
13185;SDS011;6658;53.080;7.428;2022-09-09T11:02:32;3.27;;;1.47;;
13185;SDS011;6658;53.080;7.428;2022-09-09T11:05:08;5.30;;;1.40;;
13185;SDS011;6658;53.080;7.428;2022-09-09T11:07:56;4.43;;;1.40;;
13185;SDS011;6658;53.080;7.428;2022-09-09T11:10:44;4.47;;;1.40;;
13185;SDS011;6658;53.080;7.428;2022-09-09T11:13:22;5.17;;;1.40;;
13185;SDS011;6658;53.080;7.428;2022-09-09T11:18:58;4.00;;;1.00;;
13185;SDS011;6658;53.080;7.428;2022-09-09T11:21:59;4.57;;;1.20;;
13185;SDS011;6658;53.080;7.428;2022-09-09T11:27:14;4.80;;;1.80;;
13185;SDS011;6658;53.080;7.428;2022-09-09T11:41:09;2.77;;;1.17;;
13185;SDS011;6658;53.080;7.428;2022-09-09T11:46:08;1.57;;;0.83;;
13185;SDS011;6658;53.080;7.428;2022-09-09T11:48:39;3.43;;;1.07;;
13185;SDS011;6658;53.080;7.428;2022-09-09T11:51:10;4.03;;;1.03;;
13185;SDS011;6658;53.080;7.428;2022-09-09T11:53:48;3.13;;;1.30;;
13185;SDS011;6658;53.080;7.428;2022-09-09T11:57:01;3.37;;;1.03;;
13185;SDS011;6658;53.080;7.428;2022-09-09T11:59:25;2.57;;;0.93;;
13185;SDS011;6658;53.080;7.428;2022-09-09T12:01:57;2.67;;;0.90;;
13185;SDS011;6658;53.080;7.428;2022-09-09T12:04:53;5.37;;;1.17;;
13185;SDS011;6658;53.080;7.428;2022-09-09T12:10:38;4.17;;;1.93;;
13185;SDS011;6658;53.080;7.428;2022-09-09T12:12:43;4.17;;;1.20;;
13185;SDS011;6658;53.080;7.428;2022-09-09T12:17:44;1.53;;;1.00;;
13185;SDS011;6658;53.080;7.428;2022-09-09T12:20:20;3.27;;;1.20;;
13185;SDS011;6658;53.080;7.428;2022-09-09T12:26:01;3.37;;;1.30;;
13185;SDS011;6658;53.080;7.428;2022-09-09T12:31:23;4.43;;;1.00;;
13185;SDS011;6658;53.080;7.428;2022-09-09T12:33:50;3.57;;;0.93;;
13185;SDS011;6658;53.080;7.428;2022-09-09T12:36:21;2.83;;;1.13;;
13185;SDS011;6658;53.080;7.428;2022-09-09T12:38:52;4.17;;;1.10;;
13185;SDS011;6658;53.080;7.428;2022-09-09T12:41:24;2.17;;;1.07;;
13185;SDS011;6658;53.080;7.428;2022-09-09T12:43:51;3.27;;;1.50;;
13185;SDS011;6658;53.080;7.428;2022-09-09T12:46:40;3.43;;;1.17;;
13185;SDS011;6658;53.080;7.428;2022-09-09T12:52:13;3.57;;;1.23;;
13185;SDS011;6658;53.080;7.428;2022-09-09T12:54:42;3.97;;;1.00;;
13185;SDS011;6658;53.080;7.428;2022-09-09T12:57:11;2.57;;;1.00;;
13185;SDS011;6658;53.080;7.428;2022-09-09T12:59:42;2.37;;;1.00;;
13185;SDS011;6658;53.080;7.428;2022-09-09T13:02:22;2.40;;;0.93;;
13185;SDS011;6658;53.080;7.428;2022-09-09T13:04:55;3.47;;;1.20;;
13185;SDS011;6658;53.080;7.428;2022-09-09T13:07:38;4.37;;;1.10;;
13185;SDS011;6658;53.080;7.428;2022-09-09T13:10:04;2.80;;;1.10;;
13185;SDS011;6658;53.080;7.428;2022-09-09T13:12:31;2.83;;;0.77;;
13185;SDS011;6658;53.080;7.428;2022-09-09T13:14:56;3.53;;;1.20;;
13185;SDS011;6658;53.080;7.428;2022-09-09T13:17:26;1.90;;;1.10;;
13185;SDS011;6658;53.080;7.428;2022-09-09T13:19:55;2.60;;;1.20;;
13185;SDS011;6658;53.080;7.428;2022-09-09T13:22:33;3.23;;;0.90;;
13185;SDS011;6658;53.080;7.428;2022-09-09T13:25:17;2.90;;;0.70;;
13185;SDS011;6658;53.080;7.428;2022-09-09T13:28:02;3.30;;;0.87;;
13185;SDS011;6658;53.080;7.428;2022-09-09T13:30:32;4.10;;;1.00;;
13185;SDS011;6658;53.080;7.428;2022-09-09T13:35:53;2.00;;;0.90;;
13185;SDS011;6658;53.080;7.428;2022-09-09T13:38:20;2.30;;;0.70;;
13185;SDS011;6658;53.080;7.428;2022-09-09T13:40:59;1.83;;;0.80;;
13185;SDS011;6658;53.080;7.428;2022-09-09T13:43:28;1.77;;;0.67;;
13185;SDS011;6658;53.080;7.428;2022-09-09T13:45:57;5.63;;;1.37;;
13185;SDS011;6658;53.080;7.428;2022-09-09T13:48:25;4.00;;;1.20;;
13185;SDS011;6658;53.080;7.428;2022-09-09T13:50:58;1.47;;;0.70;;
13185;SDS011;6658;53.080;7.428;2022-09-09T13:53:31;2.20;;;0.90;;
13185;SDS011;6658;53.080;7.428;2022-09-09T13:55:58;2.57;;;1.00;;
13185;SDS011;6658;53.080;7.428;2022-09-09T13:58:24;2.60;;;1.27;;
13185;SDS011;6658;53.080;7.428;2022-09-09T14:00:51;2.80;;;1.07;;
13185;SDS011;6658;53.080;7.428;2022-09-09T14:03:18;3.27;;;0.77;;
13185;SDS011;6658;53.080;7.428;2022-09-09T14:05:44;2.20;;;0.80;;
13185;SDS011;6658;53.080;7.428;2022-09-09T14:08:14;1.53;;;0.70;;
13185;SDS011;6658;53.080;7.428;2022-09-09T14:10:46;1.47;;;0.70;;
13185;SDS011;6658;53.080;7.428;2022-09-09T14:13:12;1.73;;;0.73;;
13185;SDS011;6658;53.080;7.428;2022-09-09T14:15:37;3.87;;;0.50;;
13185;SDS011;6658;53.080;7.428;2022-09-09T14:18:03;3.87;;;0.77;;
13185;SDS011;6658;53.080;7.428;2022-09-09T14:20:29;3.33;;;0.80;;
13185;SDS011;6658;53.080;7.428;2022-09-09T14:22:55;1.03;;;0.60;;
13185;SDS011;6658;53.080;7.428;2022-09-09T14:25:22;3.13;;;0.70;;
13185;SDS011;6658;53.080;7.428;2022-09-09T14:27:48;1.23;;;0.50;;
13185;SDS011;6658;53.080;7.428;2022-09-09T14:30:16;1.57;;;0.50;;
13185;SDS011;6658;53.080;7.428;2022-09-09T14:32:42;3.73;;;0.60;;
13185;SDS011;6658;53.080;7.428;2022-09-09T14:35:07;1.73;;;0.70;;
13185;SDS011;6658;53.080;7.428;2022-09-09T14:37:33;1.53;;;0.60;;
13185;SDS011;6658;53.080;7.428;2022-09-09T14:39:59;6.93;;;1.30;;
13185;SDS011;6658;53.080;7.428;2022-09-09T14:42:25;1.27;;;0.60;;
13185;SDS011;6658;53.080;7.428;2022-09-09T14:44:51;1.90;;;0.50;;
13185;SDS011;6658;53.080;7.428;2022-09-09T14:47:17;2.10;;;1.00;;
13185;SDS011;6658;53.080;7.428;2022-09-09T14:49:43;3.30;;;1.07;;
13185;SDS011;6658;53.080;7.428;2022-09-09T14:52:09;4.00;;;0.93;;
13185;SDS011;6658;53.080;7.428;2022-09-09T14:54:35;1.30;;;0.57;;
13185;SDS011;6658;53.080;7.428;2022-09-09T14:57:00;1.37;;;0.93;;
13185;SDS011;6658;53.080;7.428;2022-09-09T14:59:27;3.07;;;1.00;;
13185;SDS011;6658;53.080;7.428;2022-09-09T15:01:52;3.80;;;0.90;;
13185;SDS011;6658;53.080;7.428;2022-09-09T15:04:18;3.80;;;1.10;;
13185;SDS011;6658;53.080;7.428;2022-09-09T15:06:44;1.37;;;0.50;;
13185;SDS011;6658;53.080;7.428;2022-09-09T15:09:13;3.97;;;0.90;;
13185;SDS011;6658;53.080;7.428;2022-09-09T15:11:39;2.03;;;0.93;;
13185;SDS011;6658;53.080;7.428;2022-09-09T15:14:05;1.57;;;0.80;;
13185;SDS011;6658;53.080;7.428;2022-09-09T15:16:31;2.80;;;1.07;;
13185;SDS011;6658;53.080;7.428;2022-09-09T15:18:58;3.70;;;1.20;;
13185;SDS011;6658;53.080;7.428;2022-09-09T15:21:26;1.27;;;0.90;;
13185;SDS011;6658;53.080;7.428;2022-09-09T15:23:54;3.47;;;1.27;;
13185;SDS011;6658;53.080;7.428;2022-09-09T15:26:20;1.53;;;0.77;;
13185;SDS011;6658;53.080;7.428;2022-09-09T15:28:46;3.23;;;1.27;;
13185;SDS011;6658;53.080;7.428;2022-09-09T15:31:15;2.50;;;1.20;;
13185;SDS011;6658;53.080;7.428;2022-09-09T15:38:44;3.27;;;1.07;;
13185;SDS011;6658;53.080;7.428;2022-09-09T15:41:11;2.43;;;0.83;;
13185;SDS011;6658;53.080;7.428;2022-09-09T15:43:50;1.80;;;0.70;;
13185;SDS011;6658;53.080;7.428;2022-09-09T15:48:43;3.87;;;0.97;;
13185;SDS011;6658;53.080;7.428;2022-09-09T15:51:10;1.17;;;0.60;;
13185;SDS011;6658;53.080;7.428;2022-09-09T15:53:38;1.30;;;0.70;;
13185;SDS011;6658;53.080;7.428;2022-09-09T15:56:07;1.90;;;0.87;;
13185;SDS011;6658;53.080;7.428;2022-09-09T15:58:33;1.80;;;0.57;;
13185;SDS011;6658;53.080;7.428;2022-09-09T16:01:04;0.53;;;0.33;;
13185;SDS011;6658;53.080;7.428;2022-09-09T16:03:35;2.20;;;0.40;;
13185;SDS011;6658;53.080;7.428;2022-09-09T16:06:01;0.30;;;0.30;;
13185;SDS011;6658;53.080;7.428;2022-09-09T16:08:34;0.60;;;0.40;;
13185;SDS011;6658;53.080;7.428;2022-09-09T16:11:07;0.93;;;0.50;;
13185;SDS011;6658;53.080;7.428;2022-09-09T16:13:35;0.40;;;0.30;;
13185;SDS011;6658;53.080;7.428;2022-09-09T16:16:05;0.33;;;0.20;;
13185;SDS011;6658;53.080;7.428;2022-09-09T16:18:38;0.70;;;0.37;;
13185;SDS011;6658;53.080;7.428;2022-09-09T16:21:06;0.53;;;0.37;;
13185;SDS011;6658;53.080;7.428;2022-09-09T16:23:36;0.20;;;0.20;;
13185;SDS011;6658;53.080;7.428;2022-09-09T16:26:02;1.83;;;0.30;;
13185;SDS011;6658;53.080;7.428;2022-09-09T16:28:28;1.33;;;0.30;;
13185;SDS011;6658;53.080;7.428;2022-09-09T16:30:54;1.03;;;0.70;;
13185;SDS011;6658;53.080;7.428;2022-09-09T16:33:20;1.20;;;0.40;;
13185;SDS011;6658;53.080;7.428;2022-09-09T16:35:47;2.73;;;0.40;;
13185;SDS011;6658;53.080;7.428;2022-09-09T16:38:14;0.80;;;0.43;;
13185;SDS011;6658;53.080;7.428;2022-09-09T16:40:40;0.37;;;0.30;;
13185;SDS011;6658;53.080;7.428;2022-09-09T16:43:08;1.70;;;0.30;;
13185;SDS011;6658;53.080;7.428;2022-09-09T16:45:44;0.90;;;0.40;;
13185;SDS011;6658;53.080;7.428;2022-09-09T16:48:10;1.03;;;0.40;;
13185;SDS011;6658;53.080;7.428;2022-09-09T16:50:36;0.30;;;0.30;;
13185;SDS011;6658;53.080;7.428;2022-09-09T16:53:04;1.30;;;0.30;;
13185;SDS011;6658;53.080;7.428;2022-09-09T16:55:31;1.83;;;0.47;;
13185;SDS011;6658;53.080;7.428;2022-09-09T16:57:57;0.90;;;0.40;;
13185;SDS011;6658;53.080;7.428;2022-09-09T17:00:22;2.37;;;0.87;;
13185;SDS011;6658;53.080;7.428;2022-09-09T17:02:48;0.77;;;0.50;;
13185;SDS011;6658;53.080;7.428;2022-09-09T17:05:14;0.60;;;0.50;;
13185;SDS011;6658;53.080;7.428;2022-09-09T17:07:39;0.80;;;0.43;;
13185;SDS011;6658;53.080;7.428;2022-09-09T17:10:05;0.47;;;0.30;;
13185;SDS011;6658;53.080;7.428;2022-09-09T17:12:32;1.50;;;0.93;;
13185;SDS011;6658;53.080;7.428;2022-09-09T17:14:57;1.27;;;0.50;;
13185;SDS011;6658;53.080;7.428;2022-09-09T17:17:24;1.20;;;0.30;;
13185;SDS011;6658;53.080;7.428;2022-09-09T17:19:51;2.93;;;0.50;;
13185;SDS011;6658;53.080;7.428;2022-09-09T17:22:17;1.13;;;0.57;;
13185;SDS011;6658;53.080;7.428;2022-09-09T17:24:44;1.07;;;0.57;;
13185;SDS011;6658;53.080;7.428;2022-09-09T17:27:10;1.17;;;0.70;;
13185;SDS011;6658;53.080;7.428;2022-09-09T17:29:37;1.03;;;0.50;;
13185;SDS011;6658;53.080;7.428;2022-09-09T17:32:03;1.57;;;0.70;;
13185;SDS011;6658;53.080;7.428;2022-09-09T17:34:32;0.80;;;0.50;;
13185;SDS011;6658;53.080;7.428;2022-09-09T17:36:58;1.57;;;0.50;;
13185;SDS011;6658;53.080;7.428;2022-09-09T17:39:23;0.93;;;0.50;;
13185;SDS011;6658;53.080;7.428;2022-09-09T17:41:49;1.63;;;0.40;;
13185;SDS011;6658;53.080;7.428;2022-09-09T17:44:17;0.90;;;0.60;;
13185;SDS011;6658;53.080;7.428;2022-09-09T17:46:44;0.70;;;0.40;;
13185;SDS011;6658;53.080;7.428;2022-09-09T17:49:14;3.07;;;1.10;;
13185;SDS011;6658;53.080;7.428;2022-09-09T17:51:42;2.17;;;0.93;;
13185;SDS011;6658;53.080;7.428;2022-09-09T17:54:13;2.17;;;0.63;;
13185;SDS011;6658;53.080;7.428;2022-09-09T17:56:43;1.57;;;0.80;;
13185;SDS011;6658;53.080;7.428;2022-09-09T17:59:10;2.43;;;1.03;;
13185;SDS011;6658;53.080;7.428;2022-09-09T18:01:38;1.20;;;0.70;;
13185;SDS011;6658;53.080;7.428;2022-09-09T18:04:07;0.90;;;0.70;;